This is the latest recevied weather packets stored in our database for station/object Seibranz. If no packets are shown the sender has not sent any weather packets the latest 10 day(s).
| Time | Temp. | Humidity | Pressure | Rain* | Wind** | Luminosity | Snow |
|---|---|---|---|---|---|---|---|
| 1777539731 | 9.44° C | 53% | 1023.9 hPa | 0 mm | - | - | - |
| 1777537942 | 8.33° C | 50% | 1024.1 hPa | 0 mm | - | - | - |
| 1777536137 | 7.22° C | 52% | 1023.7 hPa | 0 mm | - | - | - |
| 1777534332 | 6.11° C | 53% | 1023.5 hPa | 0 mm | - | - | - |
| 1777532532 | 5° C | 53% | 1023.5 hPa | 0 mm | - | - | - |
| 1777530736 | 4.44° C | 57% | 1023.4 hPa | 0 mm | - | - | - |
| 1777528931 | 3.33° C | 59% | 1023.3 hPa | 0 mm | - | - | - |
| 1777527131 | 2.78° C | 62% | 1023.2 hPa | 0 mm | - | - | - |
| 1777525331 | 2.22° C | 65% | 1023.1 hPa | 0 mm | - | - | - |
| 1777523532 | 1.67° C | 67% | 1023.1 hPa | 0 mm | - | - | - |
| 1777521732 | 1.67° C | 68% | 1022.8 hPa | 0 mm | - | - | - |
| 1777519931 | 2.22° C | 67% | 1022.9 hPa | 0 mm | - | - | - |
| 1777518132 | 1.67° C | 69% | 1022.8 hPa | 0 mm | - | - | - |
| 1777514532 | 3.33° C | 63% | 1022.7 hPa | 0 mm | - | - | - |
| 1777512731 | 3.89° C | 60% | 1022.4 hPa | 0 mm | - | - | - |
| 1777510932 | 4.44° C | 58% | 1022.1 hPa | 0 mm | - | - | - |
| 1777509129 | 5° C | 55% | 1022 hPa | 0 mm | - | - | - |
| 1777507330 | 5° C | 53% | 1022 hPa | 0 mm | - | - | - |
| 1777505529 | 5.56° C | 51% | 1021.9 hPa | 0 mm | - | - | - |
| 1777503729 | 6.67° C | 51% | 1022 hPa | 0 mm | - | - | - |
| 1777501931 | 7.22° C | 50% | 1021.7 hPa | 0 mm | - | - | - |
| 1777498329 | 8.33° C | 47% | 1021.5 hPa | 0 mm | - | - | - |
| 1777496530 | 8.33° C | 47% | 1021.1 hPa | 0 mm | - | - | - |
| 1777494730 | 8.89° C | 47% | 1021 hPa | 0 mm | - | - | - |
| 1777492929 | 9.44° C | 48% | 1020.8 hPa | 0 mm | - | - | - |
* Rain since midnight (hover to see other rain measurements)
** Current wind speed in m/s (hover to see current wind gust speed)